sensor_id;sensor_type;location;lat;lon;timestamp;P1;durP1;ratioP1;P2;durP2;ratioP2
62696;SDS011;48761;42.680;23.312;2023-11-21T00:01:08;29.73;;;16.40;;
62696;SDS011;48761;42.680;23.312;2023-11-21T00:03:34;33.90;;;16.13;;
62696;SDS011;48761;42.680;23.312;2023-11-21T00:06:00;30.08;;;15.68;;
62696;SDS011;48761;42.680;23.312;2023-11-21T00:08:27;29.35;;;16.75;;
62696;SDS011;48761;42.680;23.312;2023-11-21T00:10:53;30.52;;;15.63;;
62696;SDS011;48761;42.680;23.312;2023-11-21T00:13:19;32.72;;;19.05;;
62696;SDS011;48761;42.680;23.312;2023-11-21T00:15:45;37.70;;;22.40;;
62696;SDS011;48761;42.680;23.312;2023-11-21T00:18:11;36.28;;;20.67;;
62696;SDS011;48761;42.680;23.312;2023-11-21T00:20:37;29.80;;;18.00;;
62696;SDS011;48761;42.680;23.312;2023-11-21T00:23:03;32.13;;;16.95;;
62696;SDS011;48761;42.680;23.312;2023-11-21T00:25:32;31.55;;;16.17;;
62696;SDS011;48761;42.680;23.312;2023-11-21T00:28:14;31.35;;;17.40;;
62696;SDS011;48761;42.680;23.312;2023-11-21T00:30:57;27.02;;;15.50;;
62696;SDS011;48761;42.680;23.312;2023-11-21T00:33:23;29.45;;;15.63;;
62696;SDS011;48761;42.680;23.312;2023-11-21T00:35:49;30.83;;;16.27;;
62696;SDS011;48761;42.680;23.312;2023-11-21T00:38:15;29.95;;;15.82;;
62696;SDS011;48761;42.680;23.312;2023-11-21T00:40:41;28.17;;;15.95;;
62696;SDS011;48761;42.680;23.312;2023-11-21T00:43:07;32.75;;;15.85;;
62696;SDS011;48761;42.680;23.312;2023-11-21T00:45:45;33.90;;;17.05;;
62696;SDS011;48761;42.680;23.312;2023-11-21T00:48:19;32.10;;;16.60;;
62696;SDS011;48761;42.680;23.312;2023-11-21T00:50:55;25.33;;;16.08;;
62696;SDS011;48761;42.680;23.312;2023-11-21T00:53:21;31.95;;;16.33;;
62696;SDS011;48761;42.680;23.312;2023-11-21T00:56:05;40.10;;;16.67;;
62696;SDS011;48761;42.680;23.312;2023-11-21T00:58:34;29.88;;;16.40;;
62696;SDS011;48761;42.680;23.312;2023-11-21T01:01:21;27.30;;;16.38;;
62696;SDS011;48761;42.680;23.312;2023-11-21T01:03:50;26.15;;;16.00;;
62696;SDS011;48761;42.680;23.312;2023-11-21T01:06:19;32.10;;;15.80;;
62696;SDS011;48761;42.680;23.312;2023-11-21T01:08:45;30.33;;;15.98;;
62696;SDS011;48761;42.680;23.312;2023-11-21T01:11:11;32.30;;;17.30;;
62696;SDS011;48761;42.680;23.312;2023-11-21T01:13:41;31.45;;;16.55;;
62696;SDS011;48761;42.680;23.312;2023-11-21T01:16:10;32.08;;;17.90;;
62696;SDS011;48761;42.680;23.312;2023-11-21T01:18:36;34.38;;;18.27;;
62696;SDS011;48761;42.680;23.312;2023-11-21T01:21:02;31.05;;;16.95;;
62696;SDS011;48761;42.680;23.312;2023-11-21T01:23:29;32.17;;;17.38;;
62696;SDS011;48761;42.680;23.312;2023-11-21T01:25:55;33.78;;;18.40;;
62696;SDS011;48761;42.680;23.312;2023-11-21T01:28:23;36.35;;;19.58;;
62696;SDS011;48761;42.680;23.312;2023-11-21T01:30:49;35.10;;;18.60;;
62696;SDS011;48761;42.680;23.312;2023-11-21T01:33:16;41.58;;;22.30;;
62696;SDS011;48761;42.680;23.312;2023-11-21T01:35:42;36.67;;;19.88;;
62696;SDS011;48761;42.680;23.312;2023-11-21T01:38:09;34.15;;;19.00;;
62696;SDS011;48761;42.680;23.312;2023-11-21T01:40:36;41.55;;;20.40;;
62696;SDS011;48761;42.680;23.312;2023-11-21T01:43:04;38.05;;;19.75;;
62696;SDS011;48761;42.680;23.312;2023-11-21T01:45:31;42.70;;;20.30;;
62696;SDS011;48761;42.680;23.312;2023-11-21T01:47:58;37.03;;;17.95;;
62696;SDS011;48761;42.680;23.312;2023-11-21T01:50:24;29.10;;;16.42;;
62696;SDS011;48761;42.680;23.312;2023-11-21T01:52:51;41.75;;;20.48;;
62696;SDS011;48761;42.680;23.312;2023-11-21T01:55:17;40.72;;;20.02;;
62696;SDS011;48761;42.680;23.312;2023-11-21T01:57:48;54.13;;;27.55;;
62696;SDS011;48761;42.680;23.312;2023-11-21T02:00:15;65.68;;;30.77;;
62696;SDS011;48761;42.680;23.312;2023-11-21T02:02:44;53.83;;;28.10;;
62696;SDS011;48761;42.680;23.312;2023-11-21T02:05:11;49.90;;;23.02;;
62696;SDS011;48761;42.680;23.312;2023-11-21T02:07:39;41.42;;;21.80;;
62696;SDS011;48761;42.680;23.312;2023-11-21T02:10:06;43.10;;;24.70;;
62696;SDS011;48761;42.680;23.312;2023-11-21T02:12:33;52.80;;;28.35;;
62696;SDS011;48761;42.680;23.312;2023-11-21T02:14:59;46.08;;;22.60;;
62696;SDS011;48761;42.680;23.312;2023-11-21T02:17:26;48.28;;;25.33;;
62696;SDS011;48761;42.680;23.312;2023-11-21T02:19:52;60.78;;;29.20;;
62696;SDS011;48761;42.680;23.312;2023-11-21T02:22:18;51.00;;;26.70;;
62696;SDS011;48761;42.680;23.312;2023-11-21T02:24:45;53.25;;;26.88;;
62696;SDS011;48761;42.680;23.312;2023-11-21T02:27:13;49.88;;;28.58;;
62696;SDS011;48761;42.680;23.312;2023-11-21T02:29:39;55.00;;;25.67;;
62696;SDS011;48761;42.680;23.312;2023-11-21T02:32:05;45.47;;;25.40;;
62696;SDS011;48761;42.680;23.312;2023-11-21T02:34:32;46.95;;;26.15;;
62696;SDS011;48761;42.680;23.312;2023-11-21T02:36:58;54.30;;;27.27;;
62696;SDS011;48761;42.680;23.312;2023-11-21T02:39:26;56.78;;;29.05;;
62696;SDS011;48761;42.680;23.312;2023-11-21T02:41:52;52.78;;;27.50;;
62696;SDS011;48761;42.680;23.312;2023-11-21T02:44:18;50.42;;;26.63;;
62696;SDS011;48761;42.680;23.312;2023-11-21T02:46:45;44.13;;;24.58;;
62696;SDS011;48761;42.680;23.312;2023-11-21T02:49:13;47.33;;;25.35;;
62696;SDS011;48761;42.680;23.312;2023-11-21T02:51:40;42.85;;;23.75;;
62696;SDS011;48761;42.680;23.312;2023-11-21T02:54:07;50.00;;;26.05;;
62696;SDS011;48761;42.680;23.312;2023-11-21T02:56:34;44.05;;;25.10;;
62696;SDS011;48761;42.680;23.312;2023-11-21T02:59:01;49.45;;;24.42;;
62696;SDS011;48761;42.680;23.312;2023-11-21T03:01:27;47.30;;;24.35;;
62696;SDS011;48761;42.680;23.312;2023-11-21T03:03:56;44.28;;;22.95;;
62696;SDS011;48761;42.680;23.312;2023-11-21T03:06:22;49.45;;;25.05;;
62696;SDS011;48761;42.680;23.312;2023-11-21T03:08:49;43.95;;;23.48;;
62696;SDS011;48761;42.680;23.312;2023-11-21T03:11:15;49.28;;;24.75;;
62696;SDS011;48761;42.680;23.312;2023-11-21T03:13:42;48.17;;;26.90;;
62696;SDS011;48761;42.680;23.312;2023-11-21T03:16:08;50.40;;;26.10;;
62696;SDS011;48761;42.680;23.312;2023-11-21T03:18:35;54.45;;;28.65;;
62696;SDS011;48761;42.680;23.312;2023-11-21T03:21:01;55.90;;;28.15;;
62696;SDS011;48761;42.680;23.312;2023-11-21T03:23:28;48.35;;;27.00;;
62696;SDS011;48761;42.680;23.312;2023-11-21T03:26:01;49.50;;;26.85;;
62696;SDS011;48761;42.680;23.312;2023-11-21T03:28:27;48.20;;;26.92;;
62696;SDS011;48761;42.680;23.312;2023-11-21T03:30:55;48.92;;;28.40;;
62696;SDS011;48761;42.680;23.312;2023-11-21T03:33:22;54.78;;;28.77;;
62696;SDS011;48761;42.680;23.312;2023-11-21T03:35:52;54.63;;;27.90;;
62696;SDS011;48761;42.680;23.312;2023-11-21T03:38:19;54.08;;;29.10;;
62696;SDS011;48761;42.680;23.312;2023-11-21T03:40:45;56.63;;;29.05;;
62696;SDS011;48761;42.680;23.312;2023-11-21T03:43:11;45.78;;;25.98;;
62696;SDS011;48761;42.680;23.312;2023-11-21T03:45:38;47.83;;;26.05;;
62696;SDS011;48761;42.680;23.312;2023-11-21T03:48:05;43.55;;;25.67;;
62696;SDS011;48761;42.680;23.312;2023-11-21T03:50:32;50.90;;;25.35;;
62696;SDS011;48761;42.680;23.312;2023-11-21T03:53:02;48.22;;;27.10;;
62696;SDS011;48761;42.680;23.312;2023-11-21T03:55:28;35.22;;;21.63;;
62696;SDS011;48761;42.680;23.312;2023-11-21T03:57:54;41.85;;;21.40;;
62696;SDS011;48761;42.680;23.312;2023-11-21T04:00:21;42.80;;;21.58;;
62696;SDS011;48761;42.680;23.312;2023-11-21T04:02:46;35.10;;;19.60;;
62696;SDS011;48761;42.680;23.312;2023-11-21T04:05:14;29.05;;;16.42;;
62696;SDS011;48761;42.680;23.312;2023-11-21T04:07:42;33.90;;;18.02;;
62696;SDS011;48761;42.680;23.312;2023-11-21T04:10:08;30.05;;;18.13;;
62696;SDS011;48761;42.680;23.312;2023-11-21T04:12:35;30.15;;;17.83;;
62696;SDS011;48761;42.680;23.312;2023-11-21T04:15:02;35.38;;;20.23;;
62696;SDS011;48761;42.680;23.312;2023-11-21T04:17:28;27.25;;;16.90;;
62696;SDS011;48761;42.680;23.312;2023-11-21T04:19:54;40.00;;;18.95;;
62696;SDS011;48761;42.680;23.312;2023-11-21T04:22:20;35.05;;;17.67;;
62696;SDS011;48761;42.680;23.312;2023-11-21T04:24:46;36.38;;;19.23;;
62696;SDS011;48761;42.680;23.312;2023-11-21T04:27:13;40.17;;;19.75;;
62696;SDS011;48761;42.680;23.312;2023-11-21T04:29:40;43.00;;;21.33;;
62696;SDS011;48761;42.680;23.312;2023-11-21T04:32:06;37.42;;;20.48;;
62696;SDS011;48761;42.680;23.312;2023-11-21T04:34:40;43.35;;;21.35;;
62696;SDS011;48761;42.680;23.312;2023-11-21T04:37:06;42.38;;;21.90;;
62696;SDS011;48761;42.680;23.312;2023-11-21T04:39:32;45.97;;;20.23;;
62696;SDS011;48761;42.680;23.312;2023-11-21T04:41:58;44.10;;;24.48;;
62696;SDS011;48761;42.680;23.312;2023-11-21T04:44:25;40.45;;;23.70;;
62696;SDS011;48761;42.680;23.312;2023-11-21T04:46:55;43.33;;;25.13;;
62696;SDS011;48761;42.680;23.312;2023-11-21T04:49:21;44.97;;;24.80;;
62696;SDS011;48761;42.680;23.312;2023-11-21T04:51:47;43.42;;;23.50;;
62696;SDS011;48761;42.680;23.312;2023-11-21T04:54:12;44.75;;;24.58;;
62696;SDS011;48761;42.680;23.312;2023-11-21T04:56:40;39.15;;;23.27;;
62696;SDS011;48761;42.680;23.312;2023-11-21T04:59:06;43.90;;;24.40;;
62696;SDS011;48761;42.680;23.312;2023-11-21T05:01:33;45.38;;;23.88;;
62696;SDS011;48761;42.680;23.312;2023-11-21T05:04:00;43.10;;;23.63;;
62696;SDS011;48761;42.680;23.312;2023-11-21T05:06:31;51.17;;;24.45;;
62696;SDS011;48761;42.680;23.312;2023-11-21T05:08:57;39.60;;;22.77;;
62696;SDS011;48761;42.680;23.312;2023-11-21T05:11:25;45.35;;;23.92;;
62696;SDS011;48761;42.680;23.312;2023-11-21T05:13:52;42.55;;;23.02;;
62696;SDS011;48761;42.680;23.312;2023-11-21T05:16:19;45.90;;;23.27;;
62696;SDS011;48761;42.680;23.312;2023-11-21T05:18:45;41.95;;;22.83;;
62696;SDS011;48761;42.680;23.312;2023-11-21T05:21:11;42.30;;;22.85;;
62696;SDS011;48761;42.680;23.312;2023-11-21T05:23:45;46.60;;;23.73;;
62696;SDS011;48761;42.680;23.312;2023-11-21T05:26:13;39.72;;;22.38;;
62696;SDS011;48761;42.680;23.312;2023-11-21T05:28:39;48.72;;;23.67;;
62696;SDS011;48761;42.680;23.312;2023-11-21T05:31:11;47.38;;;23.75;;
62696;SDS011;48761;42.680;23.312;2023-11-21T05:33:37;40.35;;;22.95;;
62696;SDS011;48761;42.680;23.312;2023-11-21T05:36:03;42.17;;;23.20;;
62696;SDS011;48761;42.680;23.312;2023-11-21T05:38:29;48.03;;;22.52;;
62696;SDS011;48761;42.680;23.312;2023-11-21T05:40:57;46.90;;;23.67;;
62696;SDS011;48761;42.680;23.312;2023-11-21T05:43:23;40.58;;;21.90;;
62696;SDS011;48761;42.680;23.312;2023-11-21T05:45:54;47.28;;;22.60;;
62696;SDS011;48761;42.680;23.312;2023-11-21T05:48:28;43.20;;;22.90;;
62696;SDS011;48761;42.680;23.312;2023-11-21T05:50:57;44.38;;;23.80;;
62696;SDS011;48761;42.680;23.312;2023-11-21T05:53:23;45.67;;;22.55;;
62696;SDS011;48761;42.680;23.312;2023-11-21T05:55:50;51.55;;;24.75;;
62696;SDS011;48761;42.680;23.312;2023-11-21T05:58:16;51.10;;;24.00;;
62696;SDS011;48761;42.680;23.312;2023-11-21T06:00:43;44.17;;;22.13;;
62696;SDS011;48761;42.680;23.312;2023-11-21T06:03:09;47.15;;;23.15;;
62696;SDS011;48761;42.680;23.312;2023-11-21T06:05:37;46.55;;;22.70;;
62696;SDS011;48761;42.680;23.312;2023-11-21T06:08:04;46.22;;;23.45;;
62696;SDS011;48761;42.680;23.312;2023-11-21T06:10:30;47.35;;;23.63;;
62696;SDS011;48761;42.680;23.312;2023-11-21T06:12:57;45.47;;;22.15;;
62696;SDS011;48761;42.680;23.312;2023-11-21T06:15:23;43.00;;;22.77;;
62696;SDS011;48761;42.680;23.312;2023-11-21T06:17:51;42.70;;;23.23;;
62696;SDS011;48761;42.680;23.312;2023-11-21T06:20:18;48.10;;;24.90;;
62696;SDS011;48761;42.680;23.312;2023-11-21T06:22:46;47.42;;;24.70;;
62696;SDS011;48761;42.680;23.312;2023-11-21T06:25:13;49.05;;;24.67;;
62696;SDS011;48761;42.680;23.312;2023-11-21T06:27:41;49.40;;;26.00;;
62696;SDS011;48761;42.680;23.312;2023-11-21T06:30:08;46.10;;;25.52;;
62696;SDS011;48761;42.680;23.312;2023-11-21T06:32:36;51.38;;;25.95;;
62696;SDS011;48761;42.680;23.312;2023-11-21T06:35:02;54.83;;;28.52;;
62696;SDS011;48761;42.680;23.312;2023-11-21T06:37:29;50.10;;;27.15;;
62696;SDS011;48761;42.680;23.312;2023-11-21T06:39:57;53.97;;;28.98;;
62696;SDS011;48761;42.680;23.312;2023-11-21T06:42:25;53.60;;;29.02;;
62696;SDS011;48761;42.680;23.312;2023-11-21T06:44:51;51.40;;;29.27;;
62696;SDS011;48761;42.680;23.312;2023-11-21T06:47:18;63.72;;;29.00;;
62696;SDS011;48761;42.680;23.312;2023-11-21T06:49:45;57.92;;;26.98;;
62696;SDS011;48761;42.680;23.312;2023-11-21T06:52:12;50.13;;;28.30;;
62696;SDS011;48761;42.680;23.312;2023-11-21T06:54:38;47.70;;;26.45;;
62696;SDS011;48761;42.680;23.312;2023-11-21T06:57:04;50.13;;;27.58;;
62696;SDS011;48761;42.680;23.312;2023-11-21T06:59:29;49.25;;;25.92;;
62696;SDS011;48761;42.680;23.312;2023-11-21T07:01:55;48.30;;;25.73;;
62696;SDS011;48761;42.680;23.312;2023-11-21T07:04:21;40.58;;;23.70;;
62696;SDS011;48761;42.680;23.312;2023-11-21T07:06:48;43.08;;;23.75;;
62696;SDS011;48761;42.680;23.312;2023-11-21T07:09:14;37.83;;;22.38;;
62696;SDS011;48761;42.680;23.312;2023-11-21T07:11:40;39.92;;;22.33;;
62696;SDS011;48761;42.680;23.312;2023-11-21T07:14:06;43.15;;;24.23;;
62696;SDS011;48761;42.680;23.312;2023-11-21T07:16:38;42.47;;;22.95;;
62696;SDS011;48761;42.680;23.312;2023-11-21T07:19:05;45.63;;;23.60;;
62696;SDS011;48761;42.680;23.312;2023-11-21T07:21:34;41.42;;;22.15;;
62696;SDS011;48761;42.680;23.312;2023-11-21T07:24:02;41.20;;;23.70;;
62696;SDS011;48761;42.680;23.312;2023-11-21T07:26:29;41.70;;;22.25;;
62696;SDS011;48761;42.680;23.312;2023-11-21T07:28:56;38.38;;;22.20;;
62696;SDS011;48761;42.680;23.312;2023-11-21T07:31:22;39.70;;;20.13;;
62696;SDS011;48761;42.680;23.312;2023-11-21T07:33:48;39.53;;;20.58;;
62696;SDS011;48761;42.680;23.312;2023-11-21T07:36:15;35.08;;;18.90;;
62696;SDS011;48761;42.680;23.312;2023-11-21T07:38:41;37.80;;;19.75;;
62696;SDS011;48761;42.680;23.312;2023-11-21T07:41:08;43.70;;;19.52;;
62696;SDS011;48761;42.680;23.312;2023-11-21T07:43:35;34.85;;;17.60;;
62696;SDS011;48761;42.680;23.312;2023-11-21T07:46:02;33.22;;;18.20;;
62696;SDS011;48761;42.680;23.312;2023-11-21T07:48:28;31.00;;;16.48;;
62696;SDS011;48761;42.680;23.312;2023-11-21T07:50:56;31.75;;;16.35;;
62696;SDS011;48761;42.680;23.312;2023-11-21T07:53:22;32.97;;;17.25;;
62696;SDS011;48761;42.680;23.312;2023-11-21T07:55:48;29.85;;;17.08;;
62696;SDS011;48761;42.680;23.312;2023-11-21T07:58:14;32.25;;;14.68;;
62696;SDS011;48761;42.680;23.312;2023-11-21T08:00:40;27.75;;;14.80;;
62696;SDS011;48761;42.680;23.312;2023-11-21T08:03:06;35.00;;;15.73;;
62696;SDS011;48761;42.680;23.312;2023-11-21T08:05:31;28.50;;;15.35;;
62696;SDS011;48761;42.680;23.312;2023-11-21T08:07:57;31.55;;;16.50;;
62696;SDS011;48761;42.680;23.312;2023-11-21T08:10:23;25.77;;;14.05;;
62696;SDS011;48761;42.680;23.312;2023-11-21T08:12:49;23.15;;;13.80;;
62696;SDS011;48761;42.680;23.312;2023-11-21T08:15:15;34.40;;;14.75;;
62696;SDS011;48761;42.680;23.312;2023-11-21T08:17:41;31.73;;;13.63;;
62696;SDS011;48761;42.680;23.312;2023-11-21T08:20:07;30.23;;;14.82;;
62696;SDS011;48761;42.680;23.312;2023-11-21T08:22:34;29.58;;;15.68;;
62696;SDS011;48761;42.680;23.312;2023-11-21T08:25:00;32.97;;;16.05;;
62696;SDS011;48761;42.680;23.312;2023-11-21T08:27:26;26.92;;;14.80;;
62696;SDS011;48761;42.680;23.312;2023-11-21T08:29:52;26.98;;;14.75;;
62696;SDS011;48761;42.680;23.312;2023-11-21T08:32:18;20.15;;;13.55;;
62696;SDS011;48761;42.680;23.312;2023-11-21T08:34:44;25.50;;;14.32;;
62696;SDS011;48761;42.680;23.312;2023-11-21T08:37:10;31.08;;;14.73;;
62696;SDS011;48761;42.680;23.312;2023-11-21T08:39:36;23.80;;;14.60;;
62696;SDS011;48761;42.680;23.312;2023-11-21T08:42:03;27.02;;;12.82;;
62696;SDS011;48761;42.680;23.312;2023-11-21T08:44:29;24.23;;;13.23;;
62696;SDS011;48761;42.680;23.312;2023-11-21T08:46:55;18.63;;;11.15;;
62696;SDS011;48761;42.680;23.312;2023-11-21T08:49:22;25.98;;;13.13;;
62696;SDS011;48761;42.680;23.312;2023-11-21T08:51:48;22.33;;;12.43;;
62696;SDS011;48761;42.680;23.312;2023-11-21T08:54:15;25.70;;;12.95;;
62696;SDS011;48761;42.680;23.312;2023-11-21T08:56:43;22.05;;;12.40;;
62696;SDS011;48761;42.680;23.312;2023-11-21T08:59:08;26.83;;;13.20;;
62696;SDS011;48761;42.680;23.312;2023-11-21T09:01:34;26.80;;;13.82;;
62696;SDS011;48761;42.680;23.312;2023-11-21T09:04:00;28.63;;;15.00;;
62696;SDS011;48761;42.680;23.312;2023-11-21T09:06:27;32.50;;;17.98;;
62696;SDS011;48761;42.680;23.312;2023-11-21T09:08:52;32.28;;;17.05;;
62696;SDS011;48761;42.680;23.312;2023-11-21T09:11:18;34.67;;;18.77;;
62696;SDS011;48761;42.680;23.312;2023-11-21T09:13:44;46.78;;;22.25;;
62696;SDS011;48761;42.680;23.312;2023-11-21T09:16:11;34.38;;;20.13;;
62696;SDS011;48761;42.680;23.312;2023-11-21T09:18:37;37.30;;;20.83;;
62696;SDS011;48761;42.680;23.312;2023-11-21T09:21:03;38.17;;;21.95;;
62696;SDS011;48761;42.680;23.312;2023-11-21T09:23:29;35.13;;;21.05;;
62696;SDS011;48761;42.680;23.312;2023-11-21T09:25:55;43.90;;;22.73;;
62696;SDS011;48761;42.680;23.312;2023-11-21T09:28:21;35.22;;;20.73;;
62696;SDS011;48761;42.680;23.312;2023-11-21T09:30:47;40.97;;;20.95;;
62696;SDS011;48761;42.680;23.312;2023-11-21T09:33:13;42.03;;;22.13;;
62696;SDS011;48761;42.680;23.312;2023-11-21T09:35:39;38.22;;;23.50;;
62696;SDS011;48761;42.680;23.312;2023-11-21T09:38:05;46.30;;;23.63;;
62696;SDS011;48761;42.680;23.312;2023-11-21T09:40:31;51.00;;;24.55;;
62696;SDS011;48761;42.680;23.312;2023-11-21T09:42:57;45.60;;;28.00;;
62696;SDS011;48761;42.680;23.312;2023-11-21T09:45:32;44.67;;;28.73;;
62696;SDS011;48761;42.680;23.312;2023-11-21T09:48:01;47.30;;;27.02;;
62696;SDS011;48761;42.680;23.312;2023-11-21T09:50:28;52.05;;;29.35;;
62696;SDS011;48761;42.680;23.312;2023-11-21T09:55:35;51.90;;;29.75;;
62696;SDS011;48761;42.680;23.312;2023-11-21T09:58:01;54.50;;;31.30;;
62696;SDS011;48761;42.680;23.312;2023-11-21T10:00:28;60.28;;;32.25;;
62696;SDS011;48761;42.680;23.312;2023-11-21T10:02:56;62.67;;;33.03;;
62696;SDS011;48761;42.680;23.312;2023-11-21T10:05:23;56.60;;;33.25;;
62696;SDS011;48761;42.680;23.312;2023-11-21T10:07:51;53.45;;;32.42;;
62696;SDS011;48761;42.680;23.312;2023-11-21T10:10:19;62.13;;;32.33;;
62696;SDS011;48761;42.680;23.312;2023-11-21T10:12:49;48.28;;;30.08;;
62696;SDS011;48761;42.680;23.312;2023-11-21T10:15:16;51.75;;;29.17;;
62696;SDS011;48761;42.680;23.312;2023-11-21T10:17:43;44.50;;;28.00;;
62696;SDS011;48761;42.680;23.312;2023-11-21T10:20:11;47.33;;;26.05;;
62696;SDS011;48761;42.680;23.312;2023-11-21T10:22:38;47.15;;;27.00;;
62696;SDS011;48761;42.680;23.312;2023-11-21T10:25:09;42.95;;;26.20;;
62696;SDS011;48761;42.680;23.312;2023-11-21T10:27:38;44.65;;;26.13;;
62696;SDS011;48761;42.680;23.312;2023-11-21T10:30:05;48.75;;;29.60;;
62696;SDS011;48761;42.680;23.312;2023-11-21T10:32:32;58.05;;;27.65;;
62696;SDS011;48761;42.680;23.312;2023-11-21T10:35:00;53.45;;;29.23;;
62696;SDS011;48761;42.680;23.312;2023-11-21T10:37:26;54.78;;;28.75;;
62696;SDS011;48761;42.680;23.312;2023-11-21T10:39:56;45.83;;;27.83;;
62696;SDS011;48761;42.680;23.312;2023-11-21T10:42:23;44.35;;;25.52;;
62696;SDS011;48761;42.680;23.312;2023-11-21T10:44:49;46.17;;;27.45;;
62696;SDS011;48761;42.680;23.312;2023-11-21T10:47:15;41.13;;;25.55;;
62696;SDS011;48761;42.680;23.312;2023-11-21T10:49:40;35.92;;;20.60;;
62696;SDS011;48761;42.680;23.312;2023-11-21T10:52:06;42.33;;;20.85;;
62696;SDS011;48761;42.680;23.312;2023-11-21T10:54:33;37.00;;;20.83;;
62696;SDS011;48761;42.680;23.312;2023-11-21T10:57:00;40.92;;;21.85;;
62696;SDS011;48761;42.680;23.312;2023-11-21T10:59:29;41.28;;;21.33;;
62696;SDS011;48761;42.680;23.312;2023-11-21T11:01:57;38.38;;;22.20;;
62696;SDS011;48761;42.680;23.312;2023-11-21T11:04:24;37.67;;;23.00;;
62696;SDS011;48761;42.680;23.312;2023-11-21T11:07:02;38.42;;;21.60;;
62696;SDS011;48761;42.680;23.312;2023-11-21T11:09:28;41.65;;;21.83;;
62696;SDS011;48761;42.680;23.312;2023-11-21T11:11:57;36.92;;;20.92;;
62696;SDS011;48761;42.680;23.312;2023-11-21T11:14:22;42.08;;;21.42;;
62696;SDS011;48761;42.680;23.312;2023-11-21T11:16:50;40.75;;;22.65;;
62696;SDS011;48761;42.680;23.312;2023-11-21T11:19:16;39.95;;;22.77;;
62696;SDS011;48761;42.680;23.312;2023-11-21T11:24:22;42.22;;;21.60;;
62696;SDS011;48761;42.680;23.312;2023-11-21T11:32:55;37.75;;;21.70;;
62696;SDS011;48761;42.680;23.312;2023-11-21T11:35:38;41.63;;;22.45;;
62696;SDS011;48761;42.680;23.312;2023-11-21T11:38:15;38.75;;;24.20;;
62696;SDS011;48761;42.680;23.312;2023-11-21T11:40:41;50.25;;;24.45;;
62696;SDS011;48761;42.680;23.312;2023-11-21T11:43:11;42.38;;;23.35;;
62696;SDS011;48761;42.680;23.312;2023-11-21T11:45:37;39.63;;;23.67;;
62696;SDS011;48761;42.680;23.312;2023-11-21T11:48:05;41.10;;;23.95;;
62696;SDS011;48761;42.680;23.312;2023-11-21T11:50:31;37.17;;;21.10;;
62696;SDS011;48761;42.680;23.312;2023-11-21T11:53:11;34.60;;;21.02;;
62696;SDS011;48761;42.680;23.312;2023-11-21T11:55:41;41.45;;;20.45;;
62696;SDS011;48761;42.680;23.312;2023-11-21T11:58:07;38.20;;;22.63;;
62696;SDS011;48761;42.680;23.312;2023-11-21T12:00:34;39.33;;;23.73;;
62696;SDS011;48761;42.680;23.312;2023-11-21T12:03:01;41.35;;;24.27;;
62696;SDS011;48761;42.680;23.312;2023-11-21T12:05:28;48.92;;;24.35;;
62696;SDS011;48761;42.680;23.312;2023-11-21T12:08:05;36.83;;;23.67;;
62696;SDS011;48761;42.680;23.312;2023-11-21T12:10:33;44.05;;;25.98;;
62696;SDS011;48761;42.680;23.312;2023-11-21T12:13:01;46.35;;;21.88;;
62696;SDS011;48761;42.680;23.312;2023-11-21T12:15:34;33.05;;;21.08;;
62696;SDS011;48761;42.680;23.312;2023-11-21T12:18:00;39.20;;;21.35;;
62696;SDS011;48761;42.680;23.312;2023-11-21T12:20:26;33.83;;;20.77;;
62696;SDS011;48761;42.680;23.312;2023-11-21T12:22:54;44.30;;;23.33;;
62696;SDS011;48761;42.680;23.312;2023-11-21T12:25:25;43.20;;;24.13;;
62696;SDS011;48761;42.680;23.312;2023-11-21T12:27:52;43.03;;;25.35;;
62696;SDS011;48761;42.680;23.312;2023-11-21T12:30:19;45.88;;;26.92;;
62696;SDS011;48761;42.680;23.312;2023-11-21T12:32:49;47.38;;;26.58;;
62696;SDS011;48761;42.680;23.312;2023-11-21T12:35:17;49.28;;;27.40;;
62696;SDS011;48761;42.680;23.312;2023-11-21T12:37:44;44.03;;;28.20;;
62696;SDS011;48761;42.680;23.312;2023-11-21T12:40:11;55.60;;;29.35;;
62696;SDS011;48761;42.680;23.312;2023-11-21T12:42:37;48.10;;;29.25;;
62696;SDS011;48761;42.680;23.312;2023-11-21T12:47:44;45.45;;;28.42;;
62696;SDS011;48761;42.680;23.312;2023-11-21T12:50:10;44.92;;;27.48;;
62696;SDS011;48761;42.680;23.312;2023-11-21T12:52:37;42.55;;;26.70;;
62696;SDS011;48761;42.680;23.312;2023-11-21T12:55:04;46.08;;;27.33;;
62696;SDS011;48761;42.680;23.312;2023-11-21T12:57:30;52.45;;;27.20;;
62696;SDS011;48761;42.680;23.312;2023-11-21T12:59:59;43.30;;;26.20;;
62696;SDS011;48761;42.680;23.312;2023-11-21T13:02:26;42.85;;;26.35;;
62696;SDS011;48761;42.680;23.312;2023-11-21T13:04:52;40.45;;;25.50;;
62696;SDS011;48761;42.680;23.312;2023-11-21T13:07:19;46.67;;;30.30;;
62696;SDS011;48761;42.680;23.312;2023-11-21T13:09:45;50.13;;;25.80;;
62696;SDS011;48761;42.680;23.312;2023-11-21T13:12:11;41.15;;;23.63;;
62696;SDS011;48761;42.680;23.312;2023-11-21T13:14:37;40.25;;;22.27;;
62696;SDS011;48761;42.680;23.312;2023-11-21T13:17:05;37.25;;;23.17;;
62696;SDS011;48761;42.680;23.312;2023-11-21T13:19:31;38.28;;;23.15;;
62696;SDS011;48761;42.680;23.312;2023-11-21T13:21:57;35.47;;;19.58;;
62696;SDS011;48761;42.680;23.312;2023-11-21T13:24:24;42.22;;;24.75;;
62696;SDS011;48761;42.680;23.312;2023-11-21T13:26:51;31.48;;;18.23;;
62696;SDS011;48761;42.680;23.312;2023-11-21T13:29:17;33.67;;;19.25;;
62696;SDS011;48761;42.680;23.312;2023-11-21T13:31:43;34.53;;;20.25;;
62696;SDS011;48761;42.680;23.312;2023-11-21T13:34:09;37.55;;;21.02;;
62696;SDS011;48761;42.680;23.312;2023-11-21T13:36:34;33.97;;;21.63;;
62696;SDS011;48761;42.680;23.312;2023-11-21T13:39:00;42.25;;;23.75;;
62696;SDS011;48761;42.680;23.312;2023-11-21T13:41:26;35.70;;;23.60;;
62696;SDS011;48761;42.680;23.312;2023-11-21T13:43:52;42.45;;;25.02;;
62696;SDS011;48761;42.680;23.312;2023-11-21T13:46:18;47.83;;;26.48;;
62696;SDS011;48761;42.680;23.312;2023-11-21T13:48:44;40.83;;;26.35;;
62696;SDS011;48761;42.680;23.312;2023-11-21T13:51:10;49.15;;;28.98;;
62696;SDS011;48761;42.680;23.312;2023-11-21T13:53:36;48.17;;;28.25;;
62696;SDS011;48761;42.680;23.312;2023-11-21T13:56:02;49.30;;;27.52;;
62696;SDS011;48761;42.680;23.312;2023-11-21T13:58:29;46.92;;;28.20;;
62696;SDS011;48761;42.680;23.312;2023-11-21T14:00:55;49.75;;;28.75;;
62696;SDS011;48761;42.680;23.312;2023-11-21T14:03:21;52.17;;;29.20;;
62696;SDS011;48761;42.680;23.312;2023-11-21T14:05:48;44.17;;;28.60;;
62696;SDS011;48761;42.680;23.312;2023-11-21T14:08:14;55.78;;;29.67;;
62696;SDS011;48761;42.680;23.312;2023-11-21T14:10:40;51.65;;;30.83;;
62696;SDS011;48761;42.680;23.312;2023-11-21T14:13:06;48.17;;;30.92;;
62696;SDS011;48761;42.680;23.312;2023-11-21T14:15:32;50.97;;;31.38;;
62696;SDS011;48761;42.680;23.312;2023-11-21T14:17:59;56.55;;;34.20;;
62696;SDS011;48761;42.680;23.312;2023-11-21T14:20:25;54.05;;;32.72;;
62696;SDS011;48761;42.680;23.312;2023-11-21T14:22:51;60.00;;;32.67;;